Time;durP1;ratioP1;P1;durP2;ratioP2;P2;SDS_P1;SDS_P2;PMS_P1;PMS_P2;Temp;Humidity;BMP_temperature;BMP_pressure;BME280_temperature;BME280_humidity;BME280_pressure;Samples;Min_cycle;Max_cycle;Signal;HPM_P1;HPM_P2
2023/04/08 00:01:44;;;;;;;19.67;13.43;;;;;;;6.13;67.70;102408.56;7392947;19;20033;-54
2023/04/08 00:04:11;;;;;;;21.20;13.57;;;;;;;6.05;68.04;102413.22;7393485;19;20037;-54
2023/04/08 00:06:37;;;;;;;21.50;14.73;;;;;;;5.94;68.87;102416.28;7389866;19;20363;-52
2023/04/08 00:09:03;;;;;;;22.15;14.52;;;;;;;5.98;68.31;102420.53;7390625;19;20066;-52
2023/04/08 00:11:29;;;;;;;21.58;14.55;;;;;;;6.03;68.19;102415.94;7391379;19;20006;-50
2023/04/08 00:13:55;;;;;;;22.95;16.00;;;;;;;6.06;68.05;102422.88;7391415;19;20023;-49
2023/04/08 00:16:21;;;;;;;21.20;15.50;;;;;;;6.07;68.25;102420.19;7390289;19;19995;-51
2023/04/08 00:18:48;;;;;;;22.85;15.73;;;;;;;6.04;67.99;102428.19;7391733;19;20058;-50
2023/04/08 00:21:16;;;;;;;21.00;14.45;;;;;;;6.10;68.15;102424.50;7393005;19;20010;-53
2023/04/08 00:23:42;;;;;;;22.25;14.95;;;;;;;6.20;67.98;102425.00;7392390;19;20014;-49
2023/04/08 00:26:08;;;;;;;21.87;15.17;;;;;;;6.00;68.27;102423.09;7391990;19;20006;-50
2023/04/08 00:28:34;;;;;;;21.55;14.98;;;;;;;5.99;68.38;102424.88;7390404;19;20007;-49
2023/04/08 00:30:59;;;;;;;22.02;14.02;;;;;;;6.07;68.33;102422.81;7392025;19;20006;-51
2023/04/08 00:33:25;;;;;;;20.30;12.88;;;;;;;5.99;68.56;102424.88;7390973;19;20001;-49
2023/04/08 00:35:51;;;;;;;20.70;13.10;;;;;;;6.05;68.53;102429.94;7389386;19;20058;-52
2023/04/08 00:38:16;;;;;;;18.75;13.40;;;;;;;6.07;68.65;102435.16;7390544;19;20006;-49
2023/04/08 00:40:42;;;;;;;20.92;13.40;;;;;;;6.02;68.44;102432.69;7391630;19;20005;-50
2023/04/08 00:43:07;;;;;;;19.05;13.25;;;;;;;5.95;68.97;102432.97;7392386;19;19990;-49
2023/04/08 00:45:33;;;;;;;20.23;13.13;;;;;;;5.85;69.48;102435.06;7391887;19;20084;-51
2023/04/08 00:48:00;;;;;;;22.05;13.30;;;;;;;5.91;68.99;102429.56;7388292;19;20006;-50
2023/04/08 00:50:26;;;;;;;20.00;12.48;;;;;;;6.03;68.92;102428.28;7391857;19;20005;-51
2023/04/08 00:52:51;;;;;;;19.58;13.45;;;;;;;6.11;68.40;102423.56;7390885;19;20526;-50
2023/04/08 00:55:17;;;;;;;21.73;14.65;;;;;;;6.09;68.53;102428.06;7390692;19;19991;-50
2023/04/08 00:57:43;;;;;;;20.85;14.10;;;;;;;5.94;69.16;102426.81;7394066;19;20356;-51
2023/04/08 01:00:15;;;;;;;24.50;16.23;;;;;;;6.01;69.43;102428.34;7398635;19;20019;-52
2023/04/08 01:02:53;;;;;;;24.40;15.73;;;;;;;5.99;69.40;102424.88;7398678;19;20832;-50
2023/04/08 01:05:26;;;;;;;22.88;16.17;;;;;;;6.02;69.00;102424.78;7399030;19;20006;-50
2023/04/08 01:07:51;;;;;;;22.15;15.75;;;;;;;6.08;68.80;102421.03;7396333;19;20017;-49
2023/04/08 01:10:26;;;;;;;25.80;16.77;;;;;;;5.93;69.04;102425.09;7399002;19;20006;-50
2023/04/08 01:13:07;;;;;;;23.38;16.90;;;;;;;5.94;69.68;102420.69;7398804;19;20054;-49
2023/04/08 01:15:35;;;;;;;22.67;16.08;;;;;;;5.94;69.20;102416.28;7397421;19;20072;-49
2023/04/08 01:18:06;;;;;;;24.20;16.10;;;;;;;5.94;69.17;102425.97;7397463;19;20002;-49
2023/04/08 01:20:32;;;;;;;24.88;17.20;;;;;;;5.95;69.12;102423.25;7396982;19;20006;-49
2023/04/08 01:23:38;;;;;;;25.70;17.25;;;;;;;5.86;69.57;102434.16;7399043;19;20011;-50
2023/04/08 01:26:03;;;;;;;24.42;17.10;;;;;;;5.97;69.00;102433.75;7397794;19;20015;-50
2023/04/08 01:28:30;;;;;;;23.13;16.65;;;;;;;6.04;68.60;102425.56;7394369;19;20007;-49
2023/04/08 01:30:59;;;;;;;22.25;16.20;;;;;;;6.04;68.87;102422.91;7397913;19;20026;-49
2023/04/08 01:33:27;;;;;;;25.95;18.02;;;;;;;6.03;68.74;102426.50;7398135;19;20115;-49
2023/04/08 01:35:54;;;;;;;24.30;16.55;;;;;;;5.81;69.92;102434.28;7393569;19;20009;-49
2023/04/08 01:38:28;;;;;;;25.30;17.17;;;;;;;5.85;69.92;102440.31;7394043;19;20022;-51
2023/04/08 01:40:54;;;;;;;;;;;;;;;5.96;70.62;102438.16;7398817;19;20030;-48
2023/04/08 01:43:20;;;;;;;21.92;16.52;;;;;;;6.06;69.34;102450.13;7397070;19;20327;-49
2023/04/08 01:45:48;;;;;;;25.30;17.67;;;;;;;6.04;69.21;102451.09;7397663;19;20320;-50
2023/04/08 01:48:15;;;;;;;24.33;17.45;;;;;;;6.01;69.46;102445.91;7394386;19;19999;-52
2023/04/08 01:50:42;;;;;;;25.55;18.35;;;;;;;6.00;69.44;102442.41;7395411;19;19995;-53
2023/04/08 01:53:09;;;;;;;26.38;18.25;;;;;;;6.05;69.46;102447.53;7396819;19;20005;-53
2023/04/08 01:55:37;;;;;;;23.02;16.92;;;;;;;5.97;69.55;102445.16;7397309;19;20026;-49
2023/04/08 01:58:06;;;;;;;23.95;16.95;;;;;;;5.94;69.73;102441.81;7394078;19;20418;-50
2023/04/08 02:00:33;;;;;;;22.55;16.55;;;;;;;5.98;69.64;102441.63;7396703;19;20009;-53
2023/04/08 02:03:01;;;;;;;25.00;17.30;;;;;;;6.08;69.50;102442.13;7396941;19;19994;-52
2023/04/08 02:05:27;;;;;;;23.33;16.00;;;;;;;6.00;69.83;102441.56;7397073;19;19995;-50
2023/04/08 02:07:53;;;;;;;22.45;15.63;;;;;;;6.02;69.64;102448.50;7393622;19;20015;-53
2023/04/08 02:10:18;;;;;;;21.15;14.20;;;;;;;6.02;69.69;102445.03;7395887;19;20019;-54
2023/04/08 02:12:44;;;;;;;21.88;14.50;;;;;;;6.01;69.91;102444.16;7396263;19;20005;-53
2023/04/08 02:15:11;;;;;;;20.25;13.00;;;;;;;5.92;70.24;102444.47;7395974;19;20006;-52
2023/04/08 02:17:58;;;;;;;19.05;11.57;;;;;;;5.95;70.58;102444.38;7394399;19;20020;-53
2023/04/08 02:20:54;;;;;;;19.05;11.95;;;;;;;5.89;70.83;102449.84;7395857;19;19999;-52
2023/04/08 02:23:23;;;;;;;23.30;12.25;;;;;;;5.78;71.01;102457.28;7395462;19;19999;-49
2023/04/08 02:25:51;;;;;;;18.80;11.88;;;;;;;5.94;70.47;102457.63;7396470;19;20003;-50
2023/04/08 02:28:18;;;;;;;19.17;11.95;;;;;;;5.86;70.92;102455.25;7393538;19;19999;-50
2023/04/08 02:30:51;;;;;;;23.27;12.07;;;;;;;5.92;70.75;102443.63;7396602;19;20009;-49
2023/04/08 02:33:21;;;;;;;18.58;11.80;;;;;;;5.93;70.98;102451.47;7394795;19;19991;-52
2023/04/08 02:35:49;;;;;;;19.50;11.48;;;;;;;5.97;70.85;102452.22;7391659;19;20045;-52
2023/04/08 02:38:15;;;;;;;22.60;12.23;;;;;;;6.02;70.36;102451.16;7392598;19;20029;-53
2023/04/08 02:40:41;;;;;;;21.38;11.90;;;;;;;5.92;71.25;102446.25;7392886;19;20006;-52
2023/04/08 02:43:06;;;;;;;20.73;11.98;;;;;;;6.03;70.67;102449.38;7395336;19;20016;-51
2023/04/08 02:45:39;;;;;;;19.63;11.48;;;;;;;6.04;70.47;102449.31;7395381;19;20006;-52
2023/04/08 02:48:05;;;;;;;18.98;11.15;;;;;;;5.88;71.20;102453.41;7394092;19;20009;-51
2023/04/08 02:50:31;;;;;;;18.92;12.45;;;;;;;5.92;71.46;102444.47;7395557;19;20002;-49
2023/04/08 02:52:56;;;;;;;21.25;12.65;;;;;;;5.95;71.37;102443.50;7395282;19;19994;-50
2023/04/08 02:55:22;;;;;;;21.52;12.82;;;;;;;5.96;71.27;102453.13;7394256;19;20509;-52
2023/04/08 02:57:48;;;;;;;22.73;13.30;;;;;;;5.90;71.57;102445.44;7394439;19;20526;-53
2023/04/08 03:00:14;;;;;;;22.42;13.68;;;;;;;5.90;71.68;102445.44;7395665;19;20012;-52
2023/04/08 03:02:39;;;;;;;23.90;14.35;;;;;;;5.90;71.79;102446.31;7394672;19;20003;-52
2023/04/08 03:05:06;;;;;;;22.40;13.93;;;;;;;5.87;72.23;102437.66;7395514;19;19995;-53
2023/04/08 03:07:32;;;;;;;25.52;14.95;;;;;;;5.86;71.82;102447.34;7391595;19;20036;-53
2023/04/08 03:09:58;;;;;;;24.17;14.50;;;;;;;5.81;72.54;102444.84;7393913;19;20018;-49
2023/04/08 03:12:23;;;;;;;25.65;15.65;;;;;;;5.86;72.75;102449.09;7394439;19;20355;-52
2023/04/08 03:14:49;;;;;;;25.13;15.48;;;;;;;5.82;72.49;102450.97;7395157;19;20010;-51
2023/04/08 03:17:15;;;;;;;25.05;14.90;;;;;;;5.90;72.50;102440.16;7393879;19;20005;-50
2023/04/08 03:19:41;;;;;;;24.63;14.93;;;;;;;5.95;72.18;102440.88;7393140;19;19995;-53
2023/04/08 03:22:08;;;;;;;27.55;16.20;;;;;;;5.90;72.43;102451.59;7394773;19;20040;-50
2023/04/08 03:24:34;;;;;;;29.45;16.65;;;;;;;5.87;72.56;102453.47;7394474;19;19998;-51
2023/04/08 03:27:00;;;;;;;24.15;14.82;;;;;;;5.89;72.92;102457.75;7393080;19;20320;-52
2023/04/08 03:29:25;;;;;;;28.08;17.05;;;;;;;5.96;72.35;102453.13;7391731;19;20006;-53
2023/04/08 03:31:51;;;;;;;28.85;16.35;;;;;;;5.95;72.57;102462.84;7394376;19;20462;-50
2023/04/08 03:34:17;;;;;;;27.90;16.58;;;;;;;5.83;73.09;102458.00;7393980;19;20038;-52
2023/04/08 03:36:42;;;;;;;27.25;17.00;;;;;;;5.84;73.30;102466.75;7392058;19;20438;-50
2023/04/08 03:39:09;;;;;;;32.03;18.73;;;;;;;5.93;72.93;102456.72;7392024;19;20022;-50
2023/04/08 03:41:35;;;;;;;29.58;18.00;;;;;;;5.89;72.84;102457.75;7393119;19;20001;-50
2023/04/08 03:44:00;;;;;;;29.05;17.45;;;;;;;5.98;72.62;102457.47;7393197;19;20466;-49
2023/04/08 03:46:26;;;;;;;26.35;16.40;;;;;;;5.94;72.68;102450.56;7393805;19;20328;-49
2023/04/08 03:48:51;;;;;;;25.98;15.77;;;;;;;5.90;73.12;102461.25;7392003;19;20016;-51
2023/04/08 03:51:17;;;;;;;29.08;17.45;;;;;;;5.92;72.96;102459.44;7394210;19;20006;-50
2023/04/08 03:53:43;;;;;;;27.52;16.58;;;;;;;5.90;72.82;102455.97;7393815;19;19999;-50
2023/04/08 03:56:08;;;;;;;30.48;17.33;;;;;;;5.84;73.00;102457.06;7390985;19;20002;-49
2023/04/08 03:58:34;;;;;;;27.55;16.20;;;;;;;5.87;73.30;102454.34;7391895;19;20011;-51
2023/04/08 04:00:59;;;;;;;26.30;15.55;;;;;;;5.86;73.11;102459.63;7392252;19;20786;-50
2023/04/08 04:03:25;;;;;;;24.52;15.38;;;;;;;5.84;73.30;102461.50;7392864;19;19999;-50
2023/04/08 04:05:51;;;;;;;28.75;16.50;;;;;;;5.89;73.07;102460.41;7392224;19;20002;-49
2023/04/08 04:08:17;;;;;;;24.83;15.05;;;;;;;5.95;72.97;102459.34;7391447;19;20013;-50
2023/04/08 04:10:42;;;;;;;28.55;15.93;;;;;;;6.02;72.32;102464.34;7389990;19;20009;-53
2023/04/08 04:13:08;;;;;;;27.17;16.30;;;;;;;6.00;72.71;102465.31;7393543;19;20014;-51
2023/04/08 04:15:37;;;;;;;28.48;16.63;;;;;;;5.98;72.23;102461.88;7391284;19;20066;-50
2023/04/08 04:18:03;;;;;;;27.95;16.52;;;;;;;6.03;72.39;102468.69;7391476;19;20078;-49
2023/04/08 04:20:29;;;;;;;28.83;15.75;;;;;;;5.98;72.42;102470.66;7391550;19;20031;-50
2023/04/08 04:22:54;;;;;;;27.90;16.27;;;;;;;5.95;72.86;102469.88;7391799;19;19995;-50
2023/04/08 04:25:20;;;;;;;25.35;15.05;;;;;;;5.92;72.91;102470.84;7389921;19;20352;-50
2023/04/08 04:27:45;;;;;;;25.35;15.68;;;;;;;5.85;73.24;102476.38;7390407;19;20414;-50
2023/04/08 04:30:14;;;;;;;25.48;15.18;;;;;;;5.97;73.15;102474.19;7389529;19;20009;-50
2023/04/08 04:32:42;;;;;;;26.80;16.05;;;;;;;5.98;72.67;102472.44;7390229;19;20002;-50
2023/04/08 04:35:12;;;;;;;25.42;15.02;;;;;;;6.01;72.85;102480.22;7391156;19;20014;-51
2023/04/08 04:37:37;;;;;;;26.98;15.57;;;;;;;6.05;72.54;102474.78;7389401;19;20003;-49
2023/04/08 04:40:04;;;;;;;30.10;17.00;;;;;;;6.07;72.61;102480.00;7389410;19;20002;-50
2023/04/08 04:42:30;;;;;;;28.75;16.50;;;;;;;6.06;72.44;102484.44;7391848;19;19999;-53
2023/04/08 04:44:56;;;;;;;25.38;15.38;;;;;;;5.93;72.84;102480.47;7391376;19;19998;-50
2023/04/08 04:47:33;;;;;;;26.10;16.15;;;;;;;6.01;72.91;102481.09;7390846;19;20427;-50
2023/04/08 04:50:00;;;;;;;26.55;15.40;;;;;;;6.04;72.84;102491.53;7390861;19;20027;-51
2023/04/08 04:52:25;;;;;;;28.00;16.17;;;;;;;6.04;72.41;102491.53;7391651;19;20063;-50
2023/04/08 04:54:51;;;;;;;25.73;15.50;;;;;;;5.99;73.12;102493.47;7391314;19;20003;-53
2023/04/08 04:57:16;;;;;;;25.85;15.93;;;;;;;5.97;72.87;102499.69;7389314;19;19995;-53
2023/04/08 04:59:42;;;;;;;27.85;16.10;;;;;;;5.99;72.90;102492.59;7389845;19;20003;-54
2023/04/08 05:02:07;;;;;;;28.02;15.70;;;;;;;5.94;73.28;102491.91;7391347;19;20079;-55
2023/04/08 05:04:33;;;;;;;25.13;14.80;;;;;;;5.90;73.42;102496.44;7391839;19;20030;-55
2023/04/08 05:06:59;;;;;;;24.67;14.57;;;;;;;5.96;73.16;102490.94;7390638;19;20006;-54
2023/04/08 05:09:25;;;;;;;23.73;14.18;;;;;;;6.02;73.21;102496.00;7388412;19;19993;-54
2023/04/08 05:11:50;;;;;;;25.45;13.90;;;;;;;6.03;73.17;102495.06;7391879;19;20532;-53
2023/04/08 05:14:16;;;;;;;25.52;15.38;;;;;;;5.99;72.99;102504.00;7390179;19;19991;-53
2023/04/08 05:16:41;;;;;;;26.25;15.38;;;;;;;6.04;73.27;102507.34;7388520;19;19998;-52
2023/04/08 05:19:07;;;;;;;27.42;15.43;;;;;;;6.10;72.83;102505.44;7388984;19;20018;-50
2023/04/08 05:21:32;;;;;;;26.65;14.77;;;;;;;6.04;73.12;102514.41;7388669;19;19995;-50
2023/04/08 05:23:58;;;;;;;27.23;15.55;;;;;;;6.12;73.01;102501.81;7390307;19;20077;-49
2023/04/08 05:26:23;;;;;;;26.25;14.93;;;;;;;6.10;72.73;102508.94;7390688;19;19995;-53
2023/04/08 05:28:52;;;;;;;27.02;14.75;;;;;;;6.15;72.83;102509.63;7389413;19;19994;-52
2023/04/08 05:31:19;;;;;;;27.02;14.98;;;;;;;6.21;72.93;102511.19;7389031;19;20023;-52
2023/04/08 05:33:45;;;;;;;27.25;15.10;;;;;;;6.20;72.83;102514.72;7390620;19;20005;-53
2023/04/08 05:36:11;;;;;;;27.65;15.27;;;;;;;6.21;72.97;102504.13;7387723;19;20014;-53
2023/04/08 05:38:38;;;;;;;27.58;15.02;;;;;;;6.33;72.38;102508.09;7386575;19;20003;-53
2023/04/08 05:41:03;;;;;;;25.48;15.00;;;;;;;6.35;72.34;102510.69;7390026;19;20009;-54
2023/04/08 05:43:31;;;;;;;26.30;14.73;;;;;;;6.26;72.80;102518.03;7392732;19;20501;-53
2023/04/08 05:45:56;;;;;;;26.38;14.73;;;;;;;6.20;72.91;102512.09;7398020;19;20018;-53
2023/04/08 05:48:22;;;;;;;26.02;14.93;;;;;;;6.17;73.30;102520.13;7395225;19;20002;-52
2023/04/08 05:50:47;;;;;;;26.20;13.95;;;;;;;6.12;73.23;102527.34;7397050;19;20387;-53
2023/04/08 05:53:13;;;;;;;25.23;13.32;;;;;;;6.14;73.33;102523.72;7395617;19;19991;-53
2023/04/08 05:55:40;;;;;;;23.50;13.73;;;;;;;6.17;73.33;102526.28;7396642;19;20066;-52
2023/04/08 05:58:05;;;;;;;23.33;13.23;;;;;;;6.24;73.33;102530.41;7395493;19;19994;-50
2023/04/08 06:00:31;;;;;;;23.25;12.60;;;;;;;6.27;72.86;102529.44;7395225;19;20031;-53
2023/04/08 06:02:56;;;;;;;22.88;13.63;;;;;;;6.24;73.21;102538.34;7398515;19;20467;-52
2023/04/08 06:05:22;;;;;;;24.90;13.77;;;;;;;6.22;72.90;102528.75;7399214;19;19990;-53
2023/04/08 06:07:47;;;;;;;23.63;13.07;;;;;;;6.22;73.06;102532.25;7394473;19;20072;-54
2023/04/08 06:10:13;;;;;;;21.65;13.40;;;;;;;6.18;73.24;102541.19;7395738;19;20020;-53
2023/04/08 06:12:39;;;;;;;26.05;12.95;;;;;;;6.13;73.25;102544.88;7394678;19;20019;-54
2023/04/08 06:15:06;;;;;;;22.60;13.10;;;;;;;6.14;73.31;102557.19;7395890;19;20022;-53
2023/04/08 06:17:31;;;;;;;22.60;13.10;;;;;;;6.13;73.36;102552.78;7395413;19;20018;-55
2023/04/08 06:19:57;;;;;;;24.20;13.18;;;;;;;6.20;73.56;102555.16;7396269;19;20003;-53
2023/04/08 06:22:22;;;;;;;22.80;14.10;;;;;;;6.21;73.42;102545.50;7396580;19;20308;-54
2023/04/08 06:24:48;;;;;;;22.00;13.30;;;;;;;6.25;73.16;102557.66;7395288;19;20380;-55
2023/04/08 06:27:20;;;;;;;22.35;13.23;;;;;;;6.30;73.21;102558.34;7394398;19;20002;-54
2023/04/08 06:29:46;;;;;;;23.42;13.90;;;;;;;6.41;73.13;102558.88;7394540;19;20014;-54
2023/04/08 06:32:12;;;;;;;24.05;13.00;;;;;;;6.41;72.51;102566.78;7395187;19;20451;-54
2023/04/08 06:34:38;;;;;;;20.77;11.98;;;;;;;6.49;72.51;102571.81;7394008;19;20006;-54
2023/04/08 06:37:05;;;;;;;22.30;13.30;;;;;;;6.49;72.39;102572.66;7396047;19;20010;-54
2023/04/08 06:39:30;;;;;;;23.23;12.63;;;;;;;6.42;72.65;102573.78;7393650;19;20009;-54
2023/04/08 06:41:57;;;;;;;24.00;13.52;;;;;;;6.42;72.58;102580.84;7395866;19;20819;-51
2023/04/08 06:44:22;;;;;;;21.65;12.88;;;;;;;6.35;72.85;102572.25;7394917;19;20470;-54
2023/04/08 06:46:48;;;;;;;22.50;13.52;;;;;;;6.36;72.85;102592.47;7394934;19;19998;-53
2023/04/08 06:49:14;;;;;;;22.48;13.02;;;;;;;6.35;72.88;102585.44;7390633;19;20006;-54
2023/04/08 06:51:40;;;;;;;21.10;12.75;;;;;;;6.35;73.06;102601.28;7395010;19;20003;-52
2023/04/08 06:54:05;;;;;;;22.38;12.60;;;;;;;6.37;72.76;102610.06;7393089;19;20111;-58
2023/04/08 06:56:31;;;;;;;20.58;12.90;;;;;;;6.43;72.36;102608.97;7395502;19;19994;-54
2023/04/08 06:58:57;;;;;;;22.02;12.85;;;;;;;6.35;72.92;102613.63;7391503;19;20002;-55
2023/04/08 07:01:23;;;;;;;21.33;13.20;;;;;;;6.48;72.24;102612.34;7394208;19;20006;-52
2023/04/08 07:03:56;;;;;;;20.73;13.10;;;;;;;6.50;72.28;102607.84;7395229;19;19994;-55
2023/04/08 07:06:22;;;;;;;21.60;12.48;;;;;;;6.54;71.90;102612.97;7392332;19;20088;-53
2023/04/08 07:08:47;;;;;;;23.05;12.93;;;;;;;6.57;71.67;102617.28;7392480;19;20063;-55
2023/04/08 07:11:13;;;;;;;22.58;13.63;;;;;;;6.52;71.94;102620.09;7393103;19;19995;-52
2023/04/08 07:13:38;;;;;;;19.05;11.73;;;;;;;6.53;71.85;102616.53;7393467;19;20018;-54
2023/04/08 07:16:05;;;;;;;21.83;12.75;;;;;;;6.45;72.24;102618.56;7391646;19;19995;-54
2023/04/08 07:18:31;;;;;;;19.83;12.50;;;;;;;6.56;71.54;102612.94;7392411;19;20010;-54
2023/04/08 07:20:57;;;;;;;20.88;12.50;;;;;;;6.74;71.05;102609.63;7394309;19;20023;-53
2023/04/08 07:23:23;;;;;;;22.42;13.00;;;;;;;6.76;70.86;102607.78;7391892;19;20474;-54
2023/04/08 07:25:48;;;;;;;22.77;12.80;;;;;;;6.81;70.59;102612.88;7391580;19;20005;-54
2023/04/08 07:28:14;;;;;;;21.15;12.27;;;;;;;6.76;70.92;102613.06;7391877;19;20003;-54
2023/04/08 07:30:40;;;;;;;21.00;12.70;;;;;;;6.63;71.58;102616.22;7393578;19;20309;-55
2023/04/08 07:33:05;;;;;;;21.00;11.75;;;;;;;6.60;71.30;102611.03;7392488;19;20042;-54
2023/04/08 07:35:32;;;;;;;19.52;11.38;;;;;;;6.60;71.07;102611.91;7390254;19;20103;-56
2023/04/08 07:37:57;;;;;;;19.77;12.50;;;;;;;6.64;71.11;102615.28;7392702;19;20058;-54
2023/04/08 07:40:23;;;;;;;22.70;13.32;;;;;;;6.71;70.78;102619.44;7392862;19;20040;-55
2023/04/08 07:42:48;;;;;;;21.48;12.85;;;;;;;6.70;70.75;102617.69;7391427;19;20010;-56
2023/04/08 07:45:14;;;;;;;21.88;13.65;;;;;;;6.72;70.80;102618.53;7392721;19;19998;-56
2023/04/08 07:47:40;;;;;;;20.85;12.98;;;;;;;6.86;70.18;102620.69;7390471;19;20012;-55
2023/04/08 07:50:06;;;;;;;22.38;13.65;;;;;;;6.86;70.35;102616.25;7392205;19;20031;-53
2023/04/08 07:52:32;;;;;;;22.42;13.50;;;;;;;6.78;70.19;102618.31;7393795;19;20002;-55
2023/04/08 07:54:58;;;;;;;24.55;14.10;;;;;;;6.72;70.93;102622.03;7393526;19;20010;-55
2023/04/08 07:57:25;;;;;;;24.20;13.50;;;;;;;6.76;70.61;102618.34;7392426;19;20103;-54
2023/04/08 07:59:50;;;;;;;20.90;12.88;;;;;;;6.95;69.86;102620.31;7392152;19;20017;-53
2023/04/08 08:02:16;;;;;;;24.13;13.95;;;;;;;6.93;69.93;102614.22;7393077;19;20420;-55
2023/04/08 08:04:41;;;;;;;21.80;13.85;;;;;;;7.10;69.21;102613.63;7392770;19;20013;-53
2023/04/08 08:07:07;;;;;;;21.13;13.77;;;;;;;7.20;69.44;102613.22;7388345;19;20003;-53
2023/04/08 08:09:32;;;;;;;22.08;12.90;;;;;;;7.23;68.75;102615.75;7390135;19;20013;-54
2023/04/08 08:11:58;;;;;;;21.55;13.48;;;;;;;7.30;68.43;102621.63;7391878;19;19998;-54
2023/04/08 08:14:25;;;;;;;22.05;13.40;;;;;;;7.26;68.77;102620.03;7391744;19;20355;-53
2023/04/08 08:16:52;;;;;;;21.15;14.20;;;;;;;7.18;69.30;102624.75;7392356;19;20003;-56
2023/04/08 08:19:22;;;;;;;20.02;13.85;;;;;;;7.31;68.87;102627.78;7388845;19;20467;-53
2023/04/08 08:21:47;;;;;;;22.58;14.65;;;;;;;7.30;68.83;102626.94;7391766;19;20441;-56
2023/04/08 08:24:13;;;;;;;22.17;13.68;;;;;;;7.34;68.64;102623.25;7389560;19;20002;-54
2023/04/08 08:26:39;;;;;;;23.55;14.07;;;;;;;7.22;68.81;102631.66;7390857;19;20084;-54
2023/04/08 08:29:07;;;;;;;22.98;14.13;;;;;;;7.29;68.55;102627.84;7390327;19;20468;-54
2023/04/08 08:31:33;;;;;;;22.83;13.65;;;;;;;7.45;68.34;102636.06;7392047;19;20091;-54
2023/04/08 08:33:58;;;;;;;22.42;13.48;;;;;;;7.38;68.75;102632.78;7391173;19;19999;-55
2023/04/08 08:36:26;;;;;;;23.08;14.50;;;;;;;7.38;68.45;102638.06;7389939;19;20026;-55
2023/04/08 08:38:52;;;;;;;24.40;14.35;;;;;;;7.34;68.54;102636.47;7388441;19;20002;-54
2023/04/08 08:41:19;;;;;;;22.45;14.18;;;;;;;7.14;69.26;102641.66;7391068;19;20005;-54
2023/04/08 08:43:45;;;;;;;21.83;13.38;;;;;;;7.08;69.59;102645.41;7392113;19;19995;-54
2023/04/08 08:46:11;;;;;;;22.02;13.15;;;;;;;7.28;68.97;102645.50;7390777;19;19999;-55
2023/04/08 08:48:39;;;;;;;22.15;13.82;;;;;;;7.45;68.72;102646.63;7388677;19;19991;-55
2023/04/08 08:51:09;;;;;;;23.75;14.32;;;;;;;7.54;68.23;102648.94;7389213;19;19999;-55
2023/04/08 08:53:35;;;;;;;21.48;14.30;;;;;;;7.59;68.31;102643.47;7390903;19;20023;-55
2023/04/08 08:56:00;;;;;;;26.13;14.23;;;;;;;7.55;68.25;102649.78;7388645;19;20382;-56
2023/04/08 08:58:27;;;;;;;22.85;14.13;;;;;;;7.57;68.50;102655.88;7389057;19;20332;-54
2023/04/08 09:00:52;;;;;;;23.02;14.35;;;;;;;7.50;68.52;102657.88;7391058;19;19998;-55
2023/04/08 09:03:26;;;;;;;23.00;14.05;;;;;;;7.56;68.71;102664.72;7390665;19;20488;-55
2023/04/08 09:05:56;;;;;;;22.52;14.18;;;;;;;7.61;68.32;102668.06;7390710;19;19994;-55
2023/04/08 09:08:32;;;;;;;20.40;13.43;;;;;;;7.57;68.48;102667.31;7387806;19;20015;-55
2023/04/08 09:11:18;;;;;;;23.10;14.30;;;;;;;7.60;68.58;102669.84;7387738;19;20479;-55
2023/04/08 09:13:45;;;;;;;22.25;14.02;;;;;;;7.63;68.39;102676.81;7392195;19;20015;-54
2023/04/08 09:16:13;;;;;;;26.15;13.88;;;;;;;7.61;68.14;102668.91;7393180;19;20014;-55
2023/04/08 09:18:43;;;;;;;22.65;13.95;;;;;;;7.68;68.17;102675.69;7395160;19;20110;-55
2023/04/08 09:21:08;;;;;;;21.35;14.13;;;;;;;7.70;68.01;102680.94;7399220;19;20030;-53
2023/04/08 09:23:39;;;;;;;23.50;14.32;;;;;;;7.77;67.84;102678.00;7401787;19;20356;-53
2023/04/08 09:26:18;;;;;;;24.33;15.15;;;;;;;7.86;67.81;102674.13;7400661;19;20337;-56
2023/04/08 09:28:58;;;;;;;21.92;13.48;;;;;;;7.95;67.77;102684.31;7398646;19;20017;-54
2023/04/08 09:31:26;;;;;;;21.70;13.65;;;;;;;7.81;67.86;102683.19;7400518;19;20006;-54
2023/04/08 09:33:57;;;;;;;23.05;13.60;;;;;;;7.77;67.95;102693.00;7401845;19;20014;-52
2023/04/08 09:36:23;;;;;;;22.73;14.82;;;;;;;7.82;67.94;102691.03;7398486;19;20006;-55
2023/04/08 09:38:49;;;;;;;24.35;15.10;;;;;;;7.82;68.11;102692.81;7397837;19;20003;-53
2023/04/08 09:41:16;;;;;;;24.95;14.68;;;;;;;7.78;68.11;102700.03;7401762;19;20005;-52
2023/04/08 09:43:50;;;;;;;23.00;14.38;;;;;;;7.79;68.24;102696.44;7401108;19;19995;-54
2023/04/08 09:46:23;;;;;;;23.85;15.15;;;;;;;7.71;68.04;102694.09;7400331;19;20018;-52
2023/04/08 09:48:54;;;;;;;27.10;16.63;;;;;;;7.75;68.62;102700.13;7394350;19;20022;-52
2023/04/08 09:51:22;;;;;;;23.85;14.60;;;;;;;7.82;68.05;102696.31;7399131;19;20360;-53
2023/04/08 09:53:56;;;;;;;25.77;15.50;;;;;;;7.79;68.36;102690.28;7400707;19;20462;-53
2023/04/08 09:56:21;;;;;;;;;;;;;;;7.77;69.18;102700.94;7399455;19;20003;-54
2023/04/08 09:58:53;;;;;;;27.23;16.48;;;;;;;7.81;68.23;102691.97;7395454;19;19925;-53
2023/04/08 10:01:27;;;;;;;27.45;17.30;;;;;;;7.81;68.53;102693.75;7398062;19;20027;-52
2023/04/08 10:03:56;;;;;;;30.85;16.67;;;;;;;7.88;68.27;102685.50;7399984;19;20014;-54
2023/04/08 10:06:28;;;;;;;26.80;16.88;;;;;;;7.94;67.92;102687.03;7400561;19;20007;-50
2023/04/08 10:08:57;;;;;;;28.27;17.30;;;;;;;7.97;67.70;102692.22;7397682;19;20369;-48
2023/04/08 10:11:23;;;;;;;27.23;17.42;;;;;;;7.87;68.25;102693.50;7396257;19;20010;-54
2023/04/08 10:13:49;;;;;;;30.30;18.20;;;;;;;7.88;68.08;102695.22;7395632;19;20383;-52
2023/04/08 10:16:16;;;;;;;26.38;17.20;;;;;;;7.92;68.20;102686.22;7396797;19;20459;-52
2023/04/08 10:18:43;;;;;;;30.30;18.80;;;;;;;7.88;68.20;102693.47;7394673;19;20013;-55
2023/04/08 10:21:34;;;;;;;28.60;17.63;;;;;;;7.62;69.60;102697.13;7396216;19;20364;-51
2023/04/08 10:24:04;;;;;;;30.20;18.05;;;;;;;7.72;69.23;102700.25;7395390;19;20085;-56
2023/04/08 10:26:39;;;;;;;31.88;18.85;;;;;;;7.77;69.18;102696.53;7398331;19;20471;-56
2023/04/08 10:29:29;;;;;;;27.52;16.85;;;;;;;7.83;69.44;102700.69;7394378;19;20002;-56
2023/04/08 10:31:56;;;;;;;31.30;17.88;;;;;;;7.88;68.70;102696.09;7396043;19;20010;-57
2023/04/08 10:34:25;;;;;;;28.70;17.23;;;;;;;7.98;68.61;102697.44;7395511;19;20022;-57
2023/04/08 10:36:51;;;;;;;33.58;17.88;;;;;;;7.81;69.15;102705.19;7390729;19;20014;-56
2023/04/08 10:39:17;;;;;;;31.77;17.52;;;;;;;7.77;69.46;102707.09;7393715;19;20088;-56
2023/04/08 10:41:48;;;;;;;31.00;17.75;;;;;;;7.77;69.49;102711.53;7393093;19;19991;-55
2023/04/08 10:44:18;;;;;;;32.95;18.65;;;;;;;7.77;69.36;102706.25;7393496;19;20019;-55
2023/04/08 10:46:48;;;;;;;27.38;16.90;;;;;;;7.79;69.22;102709.69;7394879;19;20005;-54
2023/04/08 10:49:16;;;;;;;29.45;17.60;;;;;;;7.91;69.15;102708.31;7393429;19;20471;-54
2023/04/08 10:51:43;;;;;;;31.65;18.95;;;;;;;7.93;69.05;102709.16;7394992;19;20582;-54
2023/04/08 10:54:13;;;;;;;30.30;17.67;;;;;;;8.02;68.88;102709.63;7395491;19;20467;-54
2023/04/08 10:56:50;;;;;;;29.77;17.38;;;;;;;8.06;68.51;102713.00;7394906;19;20463;-54
2023/04/08 10:59:27;;;;;;;28.30;17.55;;;;;;;7.95;68.69;102709.94;7392525;19;20019;-54
2023/04/08 11:01:54;;;;;;;29.55;17.73;;;;;;;8.04;68.61;102714.88;7394164;19;20097;-55
2023/04/08 11:04:22;;;;;;;30.30;17.27;;;;;;;8.07;68.59;102711.22;7393419;19;20003;-55
2023/04/08 11:06:48;;;;;;;31.90;16.75;;;;;;;8.18;68.21;102711.66;7392809;19;20058;-54
2023/04/08 11:09:15;;;;;;;31.15;18.25;;;;;;;8.22;67.84;102710.59;7392458;19;20098;-54
2023/04/08 11:11:42;;;;;;;28.08;16.98;;;;;;;8.23;67.60;102709.72;7394408;19;20030;-55
2023/04/08 11:14:08;;;;;;;31.73;17.23;;;;;;;8.16;68.45;102711.72;7394495;19;20003;-55
2023/04/08 11:16:34;;;;;;;30.52;17.30;;;;;;;8.12;68.58;102707.47;7391821;19;20025;-55
2023/04/08 11:19:03;;;;;;;30.75;18.17;;;;;;;8.21;68.25;102706.25;7392229;19;20006;-55